Terminal Aerodrome Forecast
Issued by NWS

Home | Current Version | Previous Version | Text Only | Print | Product List | Glossary On
Versions: 1 2 3 4 5 6 7 8 9 10 11 12 13 14
000
FTUS45 KREV 230526
TAFMMH
TAF
KMMH 230526Z 2306/2406 34011KT P6SM VCSH BKN025 BKN035
     FM230800 VRB04KT P6SM VCSH SCT010 BKN020
      TEMPO 2308/2310 4SM -SHRA SCT006 OVC012
     FM231600 10007KT P6SM VCSH SCT015 BKN025
     FM232000 25009KT P6SM VCSH SCT035 BKN060
     FM240300 31011KT P6SM SCT040 BKN070=

USA.gov is the U.S. government's official web portal to all federal, state and local government web resources and services.